KHLR/HLR METAR and TAF weather

Enter ICAO airport designator
Station Type Date Time Source
KHLR METAR 2020/06/03 15:58 UTC NOAA

KHLR 031558Z AUTO 00000KT 10SM CLR 29/19 A3002 RMK AO2 SLP154 T02850193


Station Type Date Time Source
KHLR Decoded METAR 2020/06/03 15:58 UTC NOAA

Fort Hood, Hood AAF Ft Hood, TX, United States (KHLR) 31-08N 097-42W
Jun 03, 2020 - 11:58 AM EDT / 2020.06.03 1558 UTC
Wind: Calm:0
Visibility: 10 mile(s):0
Sky conditions: clear
Temperature: 83.3 F (28.5 C)
Dew Point: 66.7 F (19.3 C)
Relative Humidity: 57%
Pressure (altimeter): 30.02 in. Hg (1016 hPa)
ob: KHLR 031558Z AUTO 00000KT 10SM CLR 29/19 A3002 RMK AO2 SLP154 T02850193
cycle: 16

Station Type Date Time Source
KHLR TAF UTC NOAA

Error!

Example: see airport list